createdAt,value
2024-03-09T00:00:30.299Z,0.65
2024-03-09T00:02:59.556Z,0.64
2024-03-09T00:05:27.643Z,0.63
2024-03-09T00:07:57.029Z,0.65
2024-03-09T00:10:25.595Z,0.64
2024-03-09T00:12:52.789Z,0.64
2024-03-09T00:15:21.324Z,0.62
2024-03-09T00:17:49.738Z,0.60
2024-03-09T00:20:20.861Z,0.57
2024-03-09T00:22:48.034Z,0.60
2024-03-09T00:25:16.014Z,0.57
2024-03-09T00:27:43.477Z,0.51
2024-03-09T00:30:20.386Z,0.53
2024-03-09T00:32:49.973Z,0.47
2024-03-09T00:35:17.222Z,0.44
2024-03-09T00:37:44.864Z,0.46
2024-03-09T00:40:12.356Z,0.44
2024-03-09T00:42:40.258Z,0.43
2024-03-09T00:45:09.286Z,0.38
2024-03-09T00:47:38.153Z,0.39
2024-03-09T00:50:10.002Z,0.35
2024-03-09T00:52:37.979Z,0.33
2024-03-09T00:55:11.802Z,0.31
2024-03-09T00:57:39.383Z,0.29
2024-03-09T01:00:17.419Z,0.24
2024-03-09T01:02:45.824Z,0.21
2024-03-09T01:05:13.811Z,0.22
2024-03-09T01:07:41.028Z,0.26
2024-03-09T01:10:10.315Z,0.29
2024-03-09T01:12:38.047Z,0.30
2024-03-09T01:15:08.060Z,0.28
2024-03-09T01:17:37.656Z,0.21
2024-03-09T01:20:09.393Z,0.23
2024-03-09T01:22:38.402Z,0.25
2024-03-09T01:25:07.774Z,0.28
2024-03-09T01:27:37.092Z,0.28
2024-03-09T01:30:06.985Z,0.28
2024-03-09T01:32:34.338Z,0.22
2024-03-09T01:35:02.914Z,0.24
2024-03-09T01:37:30.309Z,0.17
2024-03-09T01:39:58.037Z,0.16
2024-03-09T01:42:25.256Z,0.16
2024-03-09T01:44:52.696Z,0.15
2024-03-09T01:47:23.458Z,0.12
2024-03-09T01:49:53.848Z,0.11
2024-03-09T01:52:34.459Z,0.14
2024-03-09T01:55:05.927Z,0.19
2024-03-09T01:57:34.480Z,0.10
2024-03-09T02:00:03.159Z,0.11
2024-03-09T02:02:32.089Z,0.09
2024-03-09T02:04:59.568Z,0.08
2024-03-09T02:07:26.836Z,0.07
2024-03-09T02:09:54.432Z,0.08
2024-03-09T02:12:24.375Z,0.08
2024-03-09T02:14:51.394Z,0.05
2024-03-09T02:17:18.433Z,0.05
2024-03-09T02:19:45.563Z,0.02
2024-03-09T02:22:17.504Z,-0.01
2024-03-09T02:24:56.656Z,-0.01
2024-03-09T02:27:27.320Z,-0.04
2024-03-09T02:29:54.958Z,0.00
2024-03-09T02:32:23.393Z,0.01
2024-03-09T02:34:51.059Z,0.03
2024-03-09T02:37:21.479Z,-0.02
2024-03-09T02:39:48.675Z,-0.02
2024-03-09T02:42:15.748Z,-0.02
2024-03-09T02:44:43.412Z,0.02
2024-03-09T02:47:11.784Z,0.01
2024-03-09T02:49:40.561Z,-0.01
2024-03-09T02:52:07.992Z,-0.04
2024-03-09T02:54:37.622Z,0.01
2024-03-09T02:57:07.750Z,-0.03
2024-03-09T02:59:36.491Z,-0.02
2024-03-09T03:02:15.446Z,0.06
2024-03-09T03:04:42.527Z,0.10
2024-03-09T03:07:10.598Z,0.06
2024-03-09T03:09:37.758Z,0.01
2024-03-09T03:12:09.365Z,-0.01
2024-03-09T03:14:36.741Z,-0.01
2024-03-09T03:17:03.921Z,-0.06
2024-03-09T03:19:30.966Z,-0.05
2024-03-09T03:21:58.031Z,-0.05
2024-03-09T03:24:26.418Z,-0.12
2024-03-09T03:26:53.430Z,-0.12
2024-03-09T03:29:21.680Z,-0.15
2024-03-09T03:31:49.266Z,-0.20
2024-03-09T03:34:16.280Z,-0.21
2024-03-09T03:36:44.018Z,-0.24
2024-03-09T03:39:14.551Z,-0.28
2024-03-09T03:41:43.366Z,-0.29
2024-03-09T03:44:14.139Z,-0.29
2024-03-09T03:46:41.281Z,-0.26
2024-03-09T03:49:08.317Z,-0.22
2024-03-09T03:51:35.336Z,-0.22
2024-03-09T03:54:02.535Z,-0.22
2024-03-09T03:56:29.704Z,-0.21
2024-03-09T03:58:56.707Z,-0.20
2024-03-09T04:01:25.024Z,-0.20
2024-03-09T04:03:52.189Z,-0.22
2024-03-09T04:06:20.518Z,-0.24
2024-03-09T04:08:47.630Z,-0.25
2024-03-09T04:11:15.588Z,-0.24
2024-03-09T04:13:42.968Z,-0.21
2024-03-09T04:16:10.258Z,-0.19
2024-03-09T04:18:37.849Z,-0.20
2024-03-09T04:21:05.688Z,-0.19
2024-03-09T04:23:32.886Z,-0.20
2024-03-09T04:26:00.157Z,-0.21
2024-03-09T04:28:30.197Z,-0.22
2024-03-09T04:31:01.086Z,-0.17
2024-03-09T04:33:29.799Z,-0.14
2024-03-09T04:35:58.531Z,-0.12
2024-03-09T04:38:27.417Z,-0.09
2024-03-09T04:40:54.648Z,-0.13
2024-03-09T04:43:21.722Z,-0.12
2024-03-09T04:45:52.353Z,-0.13
2024-03-09T04:48:20.476Z,-0.14
2024-03-09T04:50:49.266Z,-0.19
2024-03-09T04:53:18.487Z,-0.26
2024-03-09T04:55:50.706Z,-0.29
2024-03-09T04:58:20.148Z,-0.34
2024-03-09T05:00:47.480Z,-0.38
2024-03-09T05:03:15.903Z,-0.43
2024-03-09T05:05:44.710Z,-0.49
2024-03-09T05:08:12.690Z,-0.50
2024-03-09T05:10:40.972Z,-0.53
2024-03-09T05:13:09.585Z,-0.55
2024-03-09T05:15:37.670Z,-0.56
2024-03-09T05:18:10.124Z,-0.56
2024-03-09T05:20:38.284Z,-0.55
2024-03-09T05:23:11.798Z,-0.55
2024-03-09T05:25:42.276Z,-0.51
2024-03-09T05:28:14.662Z,-0.50
2024-03-09T05:30:43.699Z,-0.48
2024-03-09T05:33:11.224Z,-0.49
2024-03-09T05:35:38.560Z,-0.45
2024-03-09T05:38:06.595Z,-0.45
2024-03-09T05:40:35.936Z,-0.39
2024-03-09T05:43:09.782Z,-0.34
2024-03-09T05:45:37.918Z,-0.36
2024-03-09T05:48:06.987Z,-0.35
2024-03-09T05:50:37.449Z,-0.32
2024-03-09T05:53:06.074Z,-0.31
2024-03-09T05:55:33.569Z,-0.34
2024-03-09T05:58:01.263Z,-0.32
2024-03-09T06:00:31.343Z,-0.25
2024-03-09T06:03:03.764Z,-0.21
2024-03-09T06:05:32.497Z,-0.23
2024-03-09T06:08:00.799Z,-0.27
2024-03-09T06:10:29.416Z,-0.28
2024-03-09T06:12:56.560Z,-0.29
2024-03-09T06:15:25.018Z,-0.24
2024-03-09T06:17:55.760Z,-0.20
2024-03-09T06:20:28.424Z,-0.16
2024-03-09T06:22:58.295Z,-0.12
2024-03-09T06:25:27.756Z,-0.07
2024-03-09T06:28:01.241Z,-0.04
2024-03-09T06:30:31.571Z,0.03
2024-03-09T06:33:02.200Z,0.08
2024-03-09T06:35:31.043Z,0.16
2024-03-09T06:38:02.812Z,0.24
2024-03-09T06:40:47.989Z,0.35
2024-03-09T06:43:15.988Z,0.44
2024-03-09T06:45:48.097Z,0.48
2024-03-09T06:48:18.957Z,0.58
2024-03-09T06:50:46.461Z,0.65
2024-03-09T06:53:15.140Z,0.73
2024-03-09T06:55:42.796Z,0.77
2024-03-09T06:58:09.935Z,0.84
2024-03-09T07:00:38.771Z,0.87
2024-03-09T07:03:07.132Z,0.95
2024-03-09T07:05:39.446Z,1.03
2024-03-09T07:08:11.276Z,1.14
2024-03-09T07:10:38.919Z,1.23
2024-03-09T07:13:06.590Z,1.33
2024-03-09T07:15:34.226Z,1.44
2024-03-09T07:18:02.088Z,1.53
2024-03-09T07:20:30.313Z,1.57
2024-03-09T07:22:58.111Z,1.71
2024-03-09T07:25:27.634Z,1.81
2024-03-09T07:27:56.840Z,1.87
2024-03-09T07:30:25.638Z,1.96
2024-03-09T07:32:56.163Z,2.02
2024-03-09T07:35:29.438Z,2.06
2024-03-09T07:38:00.986Z,2.11
2024-03-09T07:40:35.395Z,2.20
2024-03-09T07:43:03.344Z,2.30
2024-03-09T07:45:31.725Z,2.41
2024-03-09T07:48:00.856Z,2.54
2024-03-09T07:50:29.568Z,2.69
2024-03-09T07:52:58.039Z,2.83
2024-03-09T07:55:30.405Z,2.99
2024-03-09T07:58:12.917Z,3.13
2024-03-09T08:00:47.014Z,3.32
2024-03-09T08:03:15.042Z,3.48
2024-03-09T08:05:42.991Z,3.59
2024-03-09T08:08:11.816Z,3.68
2024-03-09T08:10:53.707Z,3.74
2024-03-09T08:13:23.067Z,3.88
2024-03-09T08:15:50.275Z,4.02
2024-03-09T08:18:17.333Z,4.12
2024-03-09T08:20:44.459Z,4.27
2024-03-09T08:23:13.048Z,4.34
2024-03-09T08:25:40.205Z,4.45
2024-03-09T08:28:07.345Z,4.64
2024-03-09T08:30:34.931Z,4.78
2024-03-09T08:33:02.988Z,4.89
2024-03-09T08:35:34.849Z,4.92
2024-03-09T08:38:02.727Z,4.98
2024-03-09T08:40:33.060Z,5.13
2024-03-09T08:43:00.463Z,5.28
2024-03-09T08:45:31.194Z,5.42
2024-03-09T08:47:58.681Z,5.52
2024-03-09T08:50:29.033Z,5.63
2024-03-09T08:52:57.484Z,5.80
2024-03-09T08:55:25.019Z,5.85
2024-03-09T08:57:52.419Z,5.86
2024-03-09T09:00:22.007Z,5.99
2024-03-09T09:02:49.648Z,6.08
2024-03-09T09:05:20.227Z,6.25
2024-03-09T09:07:51.280Z,6.34
2024-03-09T09:10:22.872Z,6.44
2024-03-09T09:12:52.658Z,6.58
2024-03-09T09:15:20.776Z,6.67
2024-03-09T09:17:47.960Z,6.80
2024-03-09T09:20:16.717Z,6.77
2024-03-09T09:22:49.078Z,6.80
2024-03-09T09:25:18.524Z,6.89
2024-03-09T09:27:45.905Z,6.91
2024-03-09T09:30:13.652Z,6.90
2024-03-09T09:32:45.042Z,6.89
2024-03-09T09:35:13.906Z,6.97
2024-03-09T09:37:41.410Z,7.05
2024-03-09T09:40:09.353Z,7.05
2024-03-09T09:42:37.177Z,7.17
2024-03-09T09:45:05.719Z,7.20
2024-03-09T09:47:34.681Z,7.27
2024-03-09T09:50:02.628Z,7.32
2024-03-09T09:52:32.028Z,7.37
2024-03-09T09:55:03.800Z,7.46
2024-03-09T09:57:32.925Z,7.45
2024-03-09T10:00:00.381Z,7.47
2024-03-09T10:02:27.632Z,7.53
2024-03-09T10:04:55.254Z,7.47
2024-03-09T10:07:23.263Z,7.46
2024-03-09T10:09:50.927Z,7.49
2024-03-09T10:12:25.097Z,7.59
2024-03-09T10:14:53.814Z,7.66
2024-03-09T10:17:22.495Z,7.71
2024-03-09T10:19:50.643Z,7.80
2024-03-09T10:22:18.011Z,7.90
2024-03-09T10:24:55.465Z,7.93
2024-03-09T10:27:29.011Z,7.92
2024-03-09T10:30:12.416Z,7.94
2024-03-09T10:32:45.431Z,8.03
2024-03-09T10:35:13.994Z,8.16
2024-03-09T10:37:44.337Z,8.27
2024-03-09T10:40:14.320Z,8.30
2024-03-09T10:42:47.634Z,8.34
2024-03-09T10:45:17.210Z,8.47
2024-03-09T10:47:58.178Z,8.43
2024-03-09T10:50:30.845Z,8.50
2024-03-09T10:53:10.883Z,8.49
2024-03-09T10:56:05.932Z,8.51
2024-03-09T10:58:34.925Z,8.51
2024-03-09T11:01:02.543Z,8.52
2024-03-09T11:03:33.797Z,8.57
2024-03-09T11:06:01.085Z,8.55
2024-03-09T11:08:28.768Z,8.59
2024-03-09T11:10:56.603Z,8.68
2024-03-09T11:13:24.069Z,8.75
2024-03-09T11:15:55.540Z,8.79
2024-03-09T11:18:24.387Z,8.78
2024-03-09T11:21:02.991Z,8.77
2024-03-09T11:23:36.040Z,8.79
2024-03-09T11:26:05.253Z,8.78
2024-03-09T11:28:44.747Z,8.77
2024-03-09T11:31:12.831Z,8.87
2024-03-09T11:33:57.861Z,8.88
2024-03-09T11:37:05.713Z,8.82
2024-03-09T11:39:33.975Z,8.82
2024-03-09T11:42:13.592Z,8.81
2024-03-09T11:44:41.360Z,8.85
2024-03-09T11:47:09.215Z,8.92
2024-03-09T11:49:38.465Z,8.99
2024-03-09T11:52:08.940Z,9.05
2024-03-09T11:54:46.865Z,9.05
2024-03-09T11:57:14.060Z,9.05
2024-03-09T11:59:41.095Z,9.04
2024-03-09T12:02:09.164Z,9.05
2024-03-09T12:04:37.104Z,9.03
2024-03-09T12:07:10.494Z,9.05
2024-03-09T12:09:39.190Z,9.08
2024-03-09T12:12:14.320Z,9.10
2024-03-09T12:14:45.517Z,9.06
2024-03-09T12:17:13.774Z,9.12
2024-03-09T12:19:43.540Z,9.16
2024-03-09T12:22:11.805Z,9.16
2024-03-09T12:24:39.046Z,9.16
2024-03-09T12:27:06.768Z,9.10
2024-03-09T12:29:40.629Z,9.07
2024-03-09T12:32:08.649Z,9.03
2024-03-09T12:34:38.222Z,9.03
2024-03-09T12:37:05.734Z,9.02
2024-03-09T12:39:32.755Z,9.09
2024-03-09T12:42:02.979Z,9.12
2024-03-09T12:44:39.110Z,9.13
2024-03-09T12:47:06.590Z,9.12
2024-03-09T12:49:34.936Z,9.14
2024-03-09T12:52:03.707Z,9.06
2024-03-09T12:54:32.438Z,9.14
2024-03-09T12:57:04.632Z,9.14
2024-03-09T12:59:31.831Z,9.10
2024-03-09T13:01:59.886Z,9.05
2024-03-09T13:04:28.602Z,9.07
2024-03-09T13:06:58.632Z,9.11
2024-03-09T13:09:34.231Z,9.18
2024-03-09T13:12:04.439Z,9.22
2024-03-09T13:14:35.581Z,9.26
2024-03-09T13:17:03.998Z,9.22
2024-03-09T13:19:31.171Z,9.23
2024-03-09T13:22:01.393Z,9.20
2024-03-09T13:24:29.263Z,9.16
2024-03-09T13:26:57.541Z,9.14
2024-03-09T13:29:30.623Z,9.12
2024-03-09T13:32:00.072Z,9.15
2024-03-09T13:34:32.095Z,9.16
2024-03-09T13:37:00.963Z,9.22
2024-03-09T13:39:35.873Z,9.20
2024-03-09T13:42:10.529Z,9.18
2024-03-09T13:44:38.690Z,9.18
2024-03-09T13:47:07.416Z,9.15
2024-03-09T13:49:35.154Z,9.09
2024-03-09T13:52:03.973Z,9.08
2024-03-09T13:54:31.478Z,9.10
2024-03-09T13:56:58.559Z,9.10
2024-03-09T13:59:26.098Z,9.08
2024-03-09T14:01:53.643Z,9.08
2024-03-09T14:04:25.143Z,9.05
2024-03-09T14:07:07.300Z,8.99
2024-03-09T14:09:47.050Z,8.98
2024-03-09T14:12:17.137Z,8.93
2024-03-09T14:14:44.431Z,8.94
2024-03-09T14:17:14.041Z,8.94
2024-03-09T14:19:41.278Z,8.90
2024-03-09T14:22:12.624Z,8.88
2024-03-09T14:24:40.112Z,8.87
2024-03-09T14:27:10.110Z,8.82
2024-03-09T14:29:37.709Z,8.81
2024-03-09T14:32:07.971Z,8.79
2024-03-09T14:34:36.478Z,8.74
2024-03-09T14:37:04.145Z,8.73
2024-03-09T14:39:32.089Z,8.71
2024-03-09T14:41:59.484Z,8.70
2024-03-09T14:44:28.724Z,8.67
2024-03-09T14:46:56.432Z,8.62
2024-03-09T14:49:23.777Z,8.60
2024-03-09T14:51:50.901Z,8.58
2024-03-09T14:54:21.119Z,8.54
2024-03-09T14:56:49.464Z,8.52
2024-03-09T14:59:17.494Z,8.49
2024-03-09T15:01:45.271Z,8.49
2024-03-09T15:04:16.354Z,8.42
2024-03-09T15:06:43.501Z,8.40
2024-03-09T15:09:21.731Z,8.42
2024-03-09T15:11:53.948Z,8.40
2024-03-09T15:14:24.825Z,8.38
2024-03-09T15:16:52.231Z,8.33
2024-03-09T15:19:20.311Z,8.33
2024-03-09T15:21:47.562Z,8.32
2024-03-09T15:24:14.730Z,8.29
2024-03-09T15:26:44.641Z,8.28
2024-03-09T15:29:15.936Z,8.27
2024-03-09T15:31:46.068Z,8.23
2024-03-09T15:34:13.188Z,8.19
2024-03-09T15:36:40.883Z,8.12
2024-03-09T15:39:10.743Z,8.12
2024-03-09T15:41:37.842Z,8.09
2024-03-09T15:44:07.993Z,8.06
2024-03-09T15:46:37.275Z,8.02
2024-03-09T15:49:06.604Z,7.94
2024-03-09T15:51:37.180Z,7.94
2024-03-09T15:54:05.094Z,7.91
2024-03-09T15:56:34.763Z,7.85
2024-03-09T15:59:05.969Z,7.82
2024-03-09T16:01:36.871Z,7.79
2024-03-09T16:04:11.725Z,7.69
2024-03-09T16:06:39.120Z,7.68
2024-03-09T16:09:13.610Z,7.63
2024-03-09T16:11:42.760Z,7.58
2024-03-09T16:14:14.070Z,7.54
2024-03-09T16:16:42.024Z,7.48
2024-03-09T16:19:09.303Z,7.44
2024-03-09T16:21:38.941Z,7.40
2024-03-09T16:24:09.124Z,7.37
2024-03-09T16:26:36.430Z,7.33
2024-03-09T16:29:04.013Z,7.27
2024-03-09T16:31:36.956Z,7.20
2024-03-09T16:34:08.387Z,7.17
2024-03-09T16:36:36.081Z,7.15
2024-03-09T16:39:04.753Z,7.10
2024-03-09T16:41:32.467Z,7.04
2024-03-09T16:43:59.676Z,7.05
2024-03-09T16:46:28.077Z,7.02
2024-03-09T16:48:55.159Z,6.96
2024-03-09T16:51:22.426Z,6.97
2024-03-09T16:53:54.590Z,6.91
2024-03-09T16:56:22.235Z,6.91
2024-03-09T16:58:50.424Z,6.89
2024-03-09T17:01:17.801Z,6.88
2024-03-09T17:03:45.004Z,6.87
2024-03-09T17:06:17.234Z,6.83
2024-03-09T17:08:45.607Z,6.78
2024-03-09T17:11:15.651Z,6.77
2024-03-09T17:13:48.923Z,6.71
2024-03-09T17:16:19.291Z,6.66
2024-03-09T17:18:50.537Z,6.64
2024-03-09T17:21:18.608Z,6.61
2024-03-09T17:23:47.014Z,6.56
2024-03-09T17:26:21.541Z,6.54
2024-03-09T17:28:52.651Z,6.47
2024-03-09T17:31:21.538Z,6.49
2024-03-09T17:33:49.023Z,6.44
2024-03-09T17:36:19.057Z,6.48
2024-03-09T17:38:49.054Z,6.42
2024-03-09T17:41:16.794Z,6.40
2024-03-09T17:43:44.166Z,6.34
2024-03-09T17:46:11.357Z,6.34
2024-03-09T17:48:38.506Z,6.29
2024-03-09T17:51:07.150Z,6.31
2024-03-09T17:53:35.228Z,6.31
2024-03-09T17:56:02.533Z,6.32
2024-03-09T17:58:30.027Z,6.33
2024-03-09T18:00:57.154Z,6.31
2024-03-09T18:03:25.655Z,6.35
2024-03-09T18:05:57.403Z,6.34
2024-03-09T18:08:25.252Z,6.36
2024-03-09T18:10:52.471Z,6.35
2024-03-09T18:13:20.597Z,6.32
2024-03-09T18:15:48.361Z,6.31
2024-03-09T18:18:15.855Z,6.38
2024-03-09T18:20:44.731Z,6.38
2024-03-09T18:23:13.077Z,6.38
2024-03-09T18:25:43.946Z,6.39
2024-03-09T18:28:13.544Z,6.39
2024-03-09T18:30:40.976Z,6.38
2024-03-09T18:33:10.614Z,6.38
2024-03-09T18:35:39.044Z,6.38
2024-03-09T18:38:07.702Z,6.38
2024-03-09T18:40:35.042Z,6.34
2024-03-09T18:43:03.993Z,6.31
2024-03-09T18:45:34.498Z,6.35
2024-03-09T18:48:03.045Z,6.35
2024-03-09T18:50:31.307Z,6.32
2024-03-09T18:53:03.317Z,6.25
2024-03-09T18:55:31.811Z,6.30
2024-03-09T18:58:01.205Z,6.29
2024-03-09T19:00:32.612Z,6.28
2024-03-09T19:03:01.770Z,6.27
2024-03-09T19:05:29.982Z,6.22
2024-03-09T19:08:01.132Z,6.26
2024-03-09T19:10:29.242Z,6.25
2024-03-09T19:12:56.488Z,6.20
2024-03-09T19:15:29.520Z,6.19
2024-03-09T19:18:02.238Z,6.18
2024-03-09T19:20:41.743Z,6.17
2024-03-09T19:23:23.519Z,6.14
2024-03-09T19:25:55.175Z,6.17
2024-03-09T19:28:30.083Z,6.16
2024-03-09T19:31:00.883Z,6.11
2024-03-09T19:33:30.168Z,6.12
2024-03-09T19:36:04.551Z,6.07
2024-03-09T19:38:34.002Z,6.08
2024-03-09T19:41:09.129Z,6.01
2024-03-09T19:43:46.681Z,6.00
2024-03-09T19:46:36.455Z,6.06
2024-03-09T19:49:17.230Z,6.06
2024-03-09T19:51:59.415Z,6.06
2024-03-09T19:54:33.923Z,5.99
2024-03-09T19:57:06.542Z,6.06
2024-03-09T19:59:48.648Z,6.03
2024-03-09T20:02:32.229Z,6.03
2024-03-09T20:05:05.692Z,5.99
2024-03-09T20:07:43.606Z,5.98
2024-03-09T20:10:47.099Z,5.98
2024-03-09T20:13:18.121Z,5.98
2024-03-09T20:15:50.326Z,5.97
2024-03-09T20:18:33.466Z,5.93
2024-03-09T20:23:50.545Z,5.99
2024-03-09T20:29:30.774Z,6.00
2024-03-09T20:32:41.069Z,6.04
2024-03-09T20:35:34.515Z,6.07
2024-03-09T20:38:09.321Z,6.04
2024-03-09T20:40:55.755Z,6.04
2024-03-09T20:43:28.590Z,6.10
2024-03-09T20:46:04.642Z,6.10
2024-03-09T20:48:37.380Z,6.10
2024-03-09T20:51:22.226Z,6.10
2024-03-09T20:53:57.846Z,6.11
2024-03-09T20:56:45.746Z,6.10
2024-03-09T20:59:51.443Z,6.10
2024-03-09T21:02:31.232Z,6.07
2024-03-09T21:05:09.546Z,6.03
2024-03-09T21:07:54.103Z,6.07
2024-03-09T21:10:44.370Z,6.06
2024-03-09T21:13:34.602Z,6.03
2024-03-09T21:16:19.250Z,6.03
2024-03-09T21:18:55.186Z,6.01
2024-03-09T21:21:38.474Z,5.94
2024-03-09T21:24:20.560Z,5.93
2024-03-09T21:29:42.404Z,5.93
2024-03-09T21:32:29.256Z,5.91
2024-03-09T21:35:03.148Z,5.90
2024-03-09T21:38:01.464Z,5.87
2024-03-09T21:40:38.624Z,5.86
2024-03-09T21:43:22.784Z,5.86
2024-03-09T21:45:59.440Z,5.84
2024-03-09T21:48:32.712Z,5.82
2024-03-09T21:51:32.142Z,5.82
2024-03-09T21:54:29.209Z,5.78
2024-03-09T21:57:30.042Z,5.74
2024-03-09T22:00:33.707Z,5.71
2024-03-09T22:03:18.395Z,5.72
2024-03-09T22:06:05.212Z,5.72
2024-03-09T22:08:42.598Z,5.72
2024-03-09T22:11:34.355Z,5.71
2024-03-09T22:14:18.083Z,5.73
2024-03-09T22:16:52.352Z,5.72
2024-03-09T22:19:36.013Z,5.71
2024-03-09T22:22:08.577Z,5.71
2024-03-09T22:24:45.688Z,5.70
2024-03-09T22:27:30.079Z,5.69
2024-03-09T22:30:14.431Z,5.71
2024-03-09T22:32:57.239Z,5.70
2024-03-09T22:35:58.767Z,5.69
2024-03-09T22:38:37.249Z,5.69
2024-03-09T22:41:13.941Z,5.70
2024-03-09T22:43:55.855Z,5.65
2024-03-09T22:46:31.357Z,5.66
2024-03-09T22:49:09.925Z,5.63
2024-03-09T22:51:52.823Z,5.65
2024-03-09T22:54:27.996Z,5.66
2024-03-09T22:57:06.153Z,5.61
2024-03-09T22:59:47.325Z,5.65
2024-03-09T23:02:40.279Z,5.60
2024-03-09T23:08:13.999Z,5.61
2024-03-09T23:10:54.569Z,5.62
2024-03-09T23:13:58.523Z,5.60
2024-03-09T23:16:45.515Z,5.54
2024-03-09T23:19:57.812Z,5.58
2024-03-09T23:22:46.382Z,5.58
2024-03-09T23:25:19.637Z,5.56
2024-03-09T23:28:01.830Z,5.50
2024-03-09T23:30:33.635Z,5.55
2024-03-09T23:33:12.047Z,5.55
2024-03-09T23:35:41.024Z,5.54
2024-03-09T23:38:32.939Z,5.55
2024-03-09T23:41:13.302Z,5.50
2024-03-09T23:43:50.747Z,5.52
2024-03-09T23:46:50.871Z,5.50
2024-03-09T23:49:27.047Z,5.42
2024-03-09T23:52:03.963Z,5.46
2024-03-09T23:54:51.262Z,5.44
2024-03-09T23:57:30.753Z,5.43
